Latest Coastal Weather Observations for Albion Park

IDN60701

Issued at 9:11 pm EST Friday 6 May 2016 (issued every 10 minutes, with the page automatically refreshed every 10 minutes)

About coastal observations | Map of coastal stations | Coastal observations for NSW | Marine services | Other Formats
Station Details ID: 068241 Name: WOLLONGONG AIRPORT Lat: -34.56 Lon: 150.79 Height: 8.0 m
Data from the previous 72 hours. | See also: Recent months at Albion Park
Date/Time
EST
Temp

°C
Wind Pressure Rain
since 9am
mm
Weather Cloud Vis
km
Sea
Height
m
Swell
Dir
 
Speed
knots
Gust
knots
hPa Trend Height
m
Period
s
Dir
06/09:00pm 11.2 W 4 5 1019.7 - 0.0 - - 10 - - - -
06/08:30pm 12.0 WNW 3 4 1019.5 - 0.0 - - 10 - - - -
06/08:00pm 12.4 W 3 5 1019.3 - 0.0 - - 10 - - - -
06/07:30pm 13.1 W 3 4 1019.1 - 0.0 - - 10 - - - -
06/07:00pm 13.1 W 5 5 1018.9 - 0.0 - - 10 - - - -
06/06:30pm 13.5 W 4 5 1018.8 - 0.0 - - 10 - - - -
06/06:00pm 15.0 WSW 3 5 1018.5 - 0.0 - - 10 - - - -
06/05:30pm 16.1 WNW 5 7 1018.1 - 0.0 - - 10 - - - -
06/05:00pm 19.8 NNE 4 5 1017.8 - 0.0 - - 10 - - - -
06/04:30pm 21.2 NE 5 7 1017.6 - 0.0 - - 10 - - - -
06/04:00pm 21.7 NE 7 8 1017.4 - 0.0 - - 10 - - - -
06/03:30pm 22.3 NE 7 8 1017.2 - 0.0 - - 10 - - - -
06/03:00pm 22.4 NE 8 11 1017.2 - 0.0 - - 10 - - - -
06/02:30pm 22.7 NE 9 12 1017.1 - 0.0 - - 10 - - - -
06/02:00pm 23.0 NE 9 12 1016.9 - 0.0 - - 10 - - - -
06/01:30pm 23.3 NE 9 11 1017.1 - 0.0 - - 10 - - - -
06/01:00pm 23.9 NE 8 10 1017.1 - 0.0 - - 10 - - - -
06/12:30pm 23.6 NE 9 10 1017.4 - 0.0 - - 10 - - - -
06/12:00pm 23.7 ENE 8 10 1017.8 - 0.0 - - 10 - - - -
06/11:30am 23.4 ENE 7 9 1018.1 - 0.0 - - 10 - - - -
06/11:00am 23.5 NNE 5 6 1018.5 - 0.0 - - 10 - - - -
06/10:30am 23.0 NE 4 6 1018.8 - 0.0 - - 10 - - - -
06/10:00am 22.3 ENE 5 6 1018.9 - 0.0 - - 10 - - - -
06/09:30am 21.4 SSW 4 6 1018.7 - 0.0 - - 10 - - - -
06/09:00am 20.0 WSW 9 12 1018.6 - 0.0 - - 10 - - - -
06/08:30am 16.5 SSE 1 4 1018.7 - 0.0 - - 10 - - - -
06/08:00am 14.4 CALM 0 0 1018.6 - 0.0 - - 10 - - - -
06/07:30am 10.2 ESE 3 5 1018.4 - 0.0 - - 10 - - - -
06/07:00am 10.5 W 3 6 1017.9 - 0.0 - - 10 - - - -
06/06:30am 10.0 SSW 3 5 1017.4 - 0.0 - - 10 - - - -
06/06:00am 9.0 SSW 3 6 1017.0 - 0.0 - - 10 - - - -
06/05:30am 9.9 ENE 3 6 1016.8 - 0.0 - - 10 - - - -
06/05:00am 9.7 ESE 2 4 1016.4 - 0.0 - - 10 - - - -
06/04:30am 8.8 SE 3 5 1016.4 - 0.0 - - 10 - - - -
06/04:00am 8.8 ENE 3 5 1016.3 - 0.0 - - 10 - - - -
06/03:30am 8.6 NW 1 4 1016.2 - 0.0 - - 10 - - - -
06/03:00am 8.0 WSW 5 8 1016.4 - 0.0 - - 10 - - - -
06/02:30am 8.5 SSW 2 5 1016.6 - 0.0 - - 10 - - - -
06/02:00am 7.7 SW 3 6 1016.7 - 0.0 - - 10 - - - -
06/01:30am 7.7 SW 3 4 1016.9 - 0.0 - - 10 - - - -
06/01:00am 7.9 WSW 3 6 1017.0 - 0.0 - - 10 - - - -
06/12:30am 8.4 W 2 6 1017.1 - 0.0 - - 10 - - - -
06/12:00am 9.1 WSW 3 5 1017.3 - 0.0 - - 10 - - - -
 
Date/Time
EST
Temp

°C
Wind Pressure Rain
since 9am
mm
Weather Cloud Vis
km
Sea
Height
m
Swell
Dir
 
Speed
knots
Gust
knots
hPa Trend Height
m
Period
s
Dir
05/11:30pm 9.3 CALM 0 0 1017.5 - 0.0 - - 10 - - - -
05/11:00pm 8.5 W 4 6 1017.5 - 0.0 - - 10 - - - -
05/10:30pm 9.9 CALM 0 0 1017.7 - 0.0 - - 10 - - - -
05/10:00pm 10.5 W 1 4 1018.1 - 0.0 - - 10 - - - -
05/09:30pm 10.2 W 4 5 1018.3 - 0.0 - - 10 - - - -
05/09:00pm 12.0 WNW 5 5 1018.3 - 0.0 - - 10 - - - -
05/08:30pm 12.5 NW 2 6 1018.1 - 0.0 - - 10 - - - -
05/08:00pm 12.2 WNW 5 6 1017.9 - 0.0 - - 10 - - - -
05/07:30pm 12.4 W 4 5 1017.8 - 0.0 - - 10 - - - -
05/07:00pm 13.2 W 4 5 1017.5 - 0.0 - - 10 - - - -
05/06:30pm 13.8 W 3 5 1017.2 - 0.0 - - 10 - - - -
05/06:00pm 14.6 WNW 5 5 1017.2 - 0.0 - - 10 - - - -
05/05:30pm 16.2 WNW 4 5 1016.8 - 0.0 - - 10 - - - -
05/05:00pm 19.2 NE 5 8 1016.6 - 0.0 - - 10 - - - -
05/04:30pm 19.9 ENE 7 9 1016.5 - 0.0 - - 10 - - - -
05/04:00pm 20.7 ENE 6 8 1016.6 - 0.0 - - 10 - - - -
05/03:30pm 20.9 ENE 7 9 1016.5 - 0.0 - - 10 - - - -
05/03:00pm 21.1 NE 8 11 1016.5 - 0.0 - - 10 - - - -
05/02:30pm 21.3 NE 10 12 1016.4 - 0.0 - - 10 - - - -
05/02:00pm 21.6 NE 10 12 1016.3 - 0.0 - - 10 - - - -
05/01:30pm 21.6 NE 9 10 1016.5 - 0.0 - - 10 - - - -
05/01:00pm 21.7 ENE 8 9 1016.8 - 0.0 - - 10 - - - -
05/12:30pm 21.5 NE 6 9 1017.4 - 0.0 - - 10 - - - -
05/12:00pm 21.4 NE 7 9 1018.0 - 0.0 - - 10 - - - -
05/11:30am 21.1 SW 3 5 1018.6 - 0.0 - - 10 - - - -
05/11:00am 20.7 NW 7 10 1019.2 - 0.0 - - 10 - - - -
05/10:30am 19.9 NNW 7 9 1019.7 - 0.0 - - 10 - - - -
05/10:00am 19.4 NW 6 8 1020.0 - 0.0 - - 10 - - - -
05/09:30am 18.8 WNW 7 10 1020.2 - 0.0 - - 10 - - - -
05/09:00am 17.8 NW 5 6 1020.3 - 0.0 - - 10 - - - -
05/08:30am 15.2 CALM 0 0 1020.3 - 0.0 - - 10 - - - -
05/08:00am 12.3 WSW 3 6 1020.2 - 0.0 - - 10 - - - -
05/07:30am 9.1 SW 4 6 1020.0 - 0.0 - - 10 - - - -
05/07:00am 7.0 SW 2 4 1019.6 - 0.0 - - 10 - - - -
05/06:30am 7.3 SW 3 5 1019.3 - 0.0 - - 10 - - - -
05/06:00am 8.8 SW 2 5 1018.9 - 0.0 - - 10 - - - -
05/05:30am 8.4 WSW 3 7 1018.7 - 0.0 - - 10 - - - -
05/05:00am 8.3 CALM 0 3 1018.5 - 0.0 - - 10 - - - -
05/04:30am 8.2 WSW 1 4 1018.4 - 0.0 - - 10 - - - -
05/04:00am 8.8 WSW 1 4 1018.4 - 0.0 - - 10 - - - -
05/03:30am 8.4 CALM 0 0 1018.2 - 0.0 - - 10 - - - -
05/03:00am 8.4 CALM 0 0 1018.2 - 0.0 - - 10 - - - -
05/02:30am 8.5 CALM 0 0 1018.3 - 0.0 - - 10 - - - -
05/02:00am 8.8 WSW 2 5 1018.4 - 0.0 - - 10 - - - -
05/01:30am 9.3 WSW 2 3 1018.4 - 0.0 - - 10 - - - -
05/01:00am 9.8 CALM 0 0 1018.6 - 0.0 - - 10 - - - -
05/12:30am 9.4 WSW 4 5 1018.6 - 0.0 - - 10 - - - -
05/12:00am 9.8 WSW 4 5 1018.8 - 0.0 - - 10 - - - -
 
Date/Time
EST
Temp

°C
Wind Pressure Rain
since 9am
mm
Weather Cloud Vis
km
Sea
Height
m
Swell
Dir
 
Speed
knots
Gust
knots
hPa Trend Height
m
Period
s
Dir
04/11:30pm 10.9 WSW 3 4 1018.8 - 0.0 - - 10 - - - -
04/11:00pm 10.8 WSW 5 7 1019.0 - 0.0 - - 10 - - - -
04/10:30pm 11.7 CALM 0 3 1019.1 - 0.0 - - 10 - - - -
04/10:00pm 12.1 WSW 2 4 1019.1 - 0.0 - - 10 - - - -
04/09:30pm 12.4 WSW 3 5 1019.1 - 0.0 - - 10 - - - -
04/09:00pm 13.0 WSW 3 4 1018.9 - 0.0 - - 10 - - - -
04/08:30pm 13.3 WSW 3 6 1018.8 - 0.0 - - 10 - - - -
04/08:00pm 13.5 WSW 5 7 1018.5 - 0.0 - - 10 - - - -
04/07:30pm 14.3 WSW 7 8 1018.1 - 0.0 - - 10 - - - -
04/07:00pm 15.5 WNW 5 8 1017.9 - 0.0 - - 10 - - - -
04/06:30pm 16.8 SSW 7 9 1017.3 - 0.0 - - 10 - - - -
04/06:00pm 17.5 S 7 10 1016.9 - 0.0 - - 10 - - - -
04/05:30pm 18.3 SSE 8 12 1016.4 - 0.0 - - 10 - - - -
04/05:00pm 18.5 SSE 10 15 1015.9 - 0.0 - - 10 - - - -
04/04:30pm 19.0 SSE 10 14 1015.5 - 0.0 - - 10 - - - -
04/04:00pm 19.7 SE 9 14 1015.1 - 0.0 - - 10 - - - -
04/03:30pm 20.5 SE 9 16 1014.8 - 0.0 - - 10 - - - -
04/03:00pm 21.1 ESE 8 13 1014.5 - 0.0 - - 10 - - - -
04/02:30pm 21.6 SE 11 16 1013.9 - 0.0 - - 10 - - - -
04/02:00pm 23.1 E 8 17 1013.9 - 0.0 - - 10 - - - -
04/01:30pm 24.3 NW 5 9 1013.9 - 0.0 - - 10 - - - -
04/01:00pm 23.8 WSW 10 15 1013.9 - 0.0 - - 10 - - - -
04/12:30pm 23.6 WSW 8 12 1014.1 - 0.0 - - 10 - - - -
04/12:00pm 23.3 WSW 11 16 1014.4 - 0.0 - - 10 - - - -
04/11:30am 23.0 SW 10 15 1014.6 - 0.0 - - 10 - - - -
04/11:00am 22.2 WSW 9 12 1014.7 - 0.0 - Partly cloudy 10 - - - -
04/10:30am 22.1 NNW 5 8 1014.8 - 0.0 - Partly cloudy 10 - - - -
04/10:00am 21.1 WSW 8 11 1014.8 - 0.0 - - 10 - - - -
04/09:30am 20.8 WNW 10 16 1014.6 - 0.0 - - 10 - - - -
04/09:00am 18.8 W 3 7 1014.7 - 0.0 - - 10 - - - -
04/08:30am 15.8 W 3 6 1014.6 - 0.0 - - 10 - - - -
04/08:00am 11.9 W 1 4 1014.2 - 0.0 - - 10 - - - -
04/07:30am 9.4 CALM 0 0 1013.8 - 0.0 - - 10 - - - -
04/07:00am 7.0 CALM 0 0 1013.2 - 0.0 - - 10 - - - -
04/06:30am 6.3 W 2 4 1012.8 - 0.0 - - 10 - - - -
04/06:00am 6.1 W 1 3 1012.3 - 0.0 - - 10 - - - -
04/05:30am 6.5 W 2 4 1012.0 - 0.0 - - 10 - - - -
04/05:00am 7.0 W 1 4 1011.7 - 0.0 - - 10 - - - -
04/04:30am 6.7 CALM 0 0 1011.4 - 0.0 - - 10 - - - -
04/04:00am 7.4 W 3 5 1011.0 - 0.0 - - 10 - - - -
04/03:30am 7.1 W 3 6 1010.8 - 0.0 - - 10 - - - -
04/03:00am 7.6 W 4 6 1010.7 - 0.0 - - 10 - - - -
04/02:30am 7.7 CALM 0 0 1010.4 - 0.0 - - 10 - - - -
04/02:00am 7.7 W 1 5 1010.6 - 0.0 - - 10 - - - -
04/01:30am 8.0 W 2 4 1010.4 - 0.0 - - 10 - - - -
04/01:00am 8.6 W 3 4 1010.2 - 0.0 - - 10 - - - -
04/12:30am 8.5 WNW 3 6 1010.3 - 0.0 - - 10 - - - -
04/12:00am 8.9 CALM 0 0 1010.3 - 0.0 - - 10 - - - -
 
Date/Time
EST
Temp

°C
Wind Pressure Rain
since 9am
mm
Weather Cloud Vis
km
Sea
Height
m
Swell
Dir
 
Speed
knots
Gust
knots
hPa Trend Height
m
Period
s
Dir
03/11:30pm 9.3 W 4 6 1010.3 - 0.0 - - 10 - - - -
03/11:00pm 10.3 CALM 0 3 1010.3 - 0.0 - - 10 - - - -
03/10:30pm 10.7 W 4 6 1010.0 - 0.0 - - 10 - - - -
03/10:00pm 11.6 WNW 4 6 1009.9 - 0.0 - - 10 - - - -
03/09:30pm 16.2 WNW 3 6 1009.5 - 0.0 - - 10 - - - -

Other Formats:

Comma delimited format used in spreadsheet applications
http://www.bom.gov.au/fwo/IDN60701/IDN60701.95748.axf

JavaScript Object Notation format (JSON) in row-major order
http://www.bom.gov.au/fwo/IDN60701/IDN60701.95748.json